sensor_id;sensor_type;location;lat;lon;timestamp;P1;durP1;ratioP1;P2;durP2;ratioP2
68653;SDS011;55636;51.108;13.622;2022-07-21T00:00:05;7.55;;;4.93;;
68653;SDS011;55636;51.108;13.622;2022-07-21T00:01:09;7.75;;;4.88;;
68653;SDS011;55636;51.108;13.622;2022-07-21T00:02:12;8.98;;;5.10;;
68653;SDS011;55636;51.108;13.622;2022-07-21T00:03:14;5.45;;;4.88;;
68653;SDS011;55636;51.108;13.622;2022-07-21T00:04:17;5.57;;;4.80;;
68653;SDS011;55636;51.108;13.622;2022-07-21T00:05:20;7.10;;;5.10;;
68653;SDS011;55636;51.108;13.622;2022-07-21T00:06:32;8.50;;;4.80;;
68653;SDS011;55636;51.108;13.622;2022-07-21T00:07:34;6.68;;;4.82;;
68653;SDS011;55636;51.108;13.622;2022-07-21T00:08:37;7.78;;;4.85;;
68653;SDS011;55636;51.108;13.622;2022-07-21T00:09:39;5.30;;;4.47;;
68653;SDS011;55636;51.108;13.622;2022-07-21T00:10:41;10.25;;;4.63;;
68653;SDS011;55636;51.108;13.622;2022-07-21T00:11:44;6.93;;;4.70;;
68653;SDS011;55636;51.108;13.622;2022-07-21T00:12:49;6.22;;;4.45;;
68653;SDS011;55636;51.108;13.622;2022-07-21T00:13:51;6.38;;;4.47;;
68653;SDS011;55636;51.108;13.622;2022-07-21T00:14:53;7.05;;;4.82;;
68653;SDS011;55636;51.108;13.622;2022-07-21T00:15:56;7.40;;;4.97;;
68653;SDS011;55636;51.108;13.622;2022-07-21T00:17:00;6.53;;;4.75;;
68653;SDS011;55636;51.108;13.622;2022-07-21T00:18:02;8.43;;;4.78;;
68653;SDS011;55636;51.108;13.622;2022-07-21T00:19:04;6.47;;;4.72;;
68653;SDS011;55636;51.108;13.622;2022-07-21T00:20:07;5.90;;;4.72;;
68653;SDS011;55636;51.108;13.622;2022-07-21T00:21:10;5.15;;;4.65;;
68653;SDS011;55636;51.108;13.622;2022-07-21T00:22:14;7.10;;;4.75;;
68653;SDS011;55636;51.108;13.622;2022-07-21T00:23:16;7.78;;;4.38;;
68653;SDS011;55636;51.108;13.622;2022-07-21T00:24:19;5.10;;;4.57;;
68653;SDS011;55636;51.108;13.622;2022-07-21T00:25:22;7.32;;;4.63;;
68653;SDS011;55636;51.108;13.622;2022-07-21T00:26:29;5.43;;;4.40;;
68653;SDS011;55636;51.108;13.622;2022-07-21T00:27:32;5.40;;;4.57;;
68653;SDS011;55636;51.108;13.622;2022-07-21T00:28:35;5.43;;;4.30;;
68653;SDS011;55636;51.108;13.622;2022-07-21T00:29:37;5.50;;;4.55;;
68653;SDS011;55636;51.108;13.622;2022-07-21T00:30:39;5.72;;;4.88;;
68653;SDS011;55636;51.108;13.622;2022-07-21T00:31:42;4.95;;;4.40;;
68653;SDS011;55636;51.108;13.622;2022-07-21T00:32:44;4.88;;;4.32;;
68653;SDS011;55636;51.108;13.622;2022-07-21T00:33:49;5.55;;;4.78;;
68653;SDS011;55636;51.108;13.622;2022-07-21T00:34:53;6.35;;;4.60;;
68653;SDS011;55636;51.108;13.622;2022-07-21T00:35:58;8.95;;;4.70;;
68653;SDS011;55636;51.108;13.622;2022-07-21T00:37:00;5.90;;;4.38;;
68653;SDS011;55636;51.108;13.622;2022-07-21T00:38:02;5.20;;;4.60;;
68653;SDS011;55636;51.108;13.622;2022-07-21T00:39:05;5.05;;;4.32;;
68653;SDS011;55636;51.108;13.622;2022-07-21T00:40:07;8.63;;;4.95;;
68653;SDS011;55636;51.108;13.622;2022-07-21T00:41:11;5.63;;;4.53;;
68653;SDS011;55636;51.108;13.622;2022-07-21T00:42:23;5.20;;;4.57;;
68653;SDS011;55636;51.108;13.622;2022-07-21T00:43:27;4.90;;;4.20;;
68653;SDS011;55636;51.108;13.622;2022-07-21T00:44:29;6.72;;;4.50;;
68653;SDS011;55636;51.108;13.622;2022-07-21T00:45:32;6.68;;;4.63;;
68653;SDS011;55636;51.108;13.622;2022-07-21T00:46:37;6.60;;;4.70;;
68653;SDS011;55636;51.108;13.622;2022-07-21T00:47:41;6.32;;;4.25;;
68653;SDS011;55636;51.108;13.622;2022-07-21T00:48:43;6.60;;;4.80;;
68653;SDS011;55636;51.108;13.622;2022-07-21T00:49:45;6.05;;;4.60;;
68653;SDS011;55636;51.108;13.622;2022-07-21T00:50:48;5.90;;;4.68;;
68653;SDS011;55636;51.108;13.622;2022-07-21T00:51:51;6.60;;;4.93;;
68653;SDS011;55636;51.108;13.622;2022-07-21T00:53:02;5.05;;;4.50;;
68653;SDS011;55636;51.108;13.622;2022-07-21T00:54:04;5.82;;;4.20;;
68653;SDS011;55636;51.108;13.622;2022-07-21T00:55:07;4.75;;;4.30;;
68653;SDS011;55636;51.108;13.622;2022-07-21T00:56:12;6.63;;;4.50;;
68653;SDS011;55636;51.108;13.622;2022-07-21T00:57:14;6.00;;;4.60;;
68653;SDS011;55636;51.108;13.622;2022-07-21T00:58:17;5.03;;;4.20;;
68653;SDS011;55636;51.108;13.622;2022-07-21T00:59:20;4.78;;;4.35;;
68653;SDS011;55636;51.108;13.622;2022-07-21T01:00:24;5.75;;;4.47;;
68653;SDS011;55636;51.108;13.622;2022-07-21T01:01:29;5.07;;;4.57;;
68653;SDS011;55636;51.108;13.622;2022-07-21T01:02:34;6.20;;;4.13;;
68653;SDS011;55636;51.108;13.622;2022-07-21T01:03:38;7.68;;;4.45;;
68653;SDS011;55636;51.108;13.622;2022-07-21T01:04:49;4.85;;;4.07;;
68653;SDS011;55636;51.108;13.622;2022-07-21T01:05:59;6.32;;;4.40;;
68653;SDS011;55636;51.108;13.622;2022-07-21T01:07:02;5.80;;;4.35;;
68653;SDS011;55636;51.108;13.622;2022-07-21T01:08:05;4.60;;;4.20;;
68653;SDS011;55636;51.108;13.622;2022-07-21T01:09:08;6.78;;;4.60;;
68653;SDS011;55636;51.108;13.622;2022-07-21T01:10:13;5.50;;;4.55;;
68653;SDS011;55636;51.108;13.622;2022-07-21T01:11:16;6.50;;;4.43;;
68653;SDS011;55636;51.108;13.622;2022-07-21T01:12:20;4.75;;;4.25;;
68653;SDS011;55636;51.108;13.622;2022-07-21T01:13:25;5.47;;;4.10;;
68653;SDS011;55636;51.108;13.622;2022-07-21T01:14:31;4.50;;;4.10;;
68653;SDS011;55636;51.108;13.622;2022-07-21T01:15:34;4.40;;;3.83;;
68653;SDS011;55636;51.108;13.622;2022-07-21T01:16:37;5.30;;;4.25;;
68653;SDS011;55636;51.108;13.622;2022-07-21T01:17:40;5.10;;;4.30;;
68653;SDS011;55636;51.108;13.622;2022-07-21T01:18:46;7.60;;;4.57;;
68653;SDS011;55636;51.108;13.622;2022-07-21T01:19:49;6.72;;;4.40;;
68653;SDS011;55636;51.108;13.622;2022-07-21T01:20:54;4.93;;;4.05;;
68653;SDS011;55636;51.108;13.622;2022-07-21T01:21:56;6.13;;;4.13;;
68653;SDS011;55636;51.108;13.622;2022-07-21T01:22:59;7.07;;;4.53;;
68653;SDS011;55636;51.108;13.622;2022-07-21T01:24:02;5.80;;;4.20;;
68653;SDS011;55636;51.108;13.622;2022-07-21T01:25:05;5.68;;;4.25;;
68653;SDS011;55636;51.108;13.622;2022-07-21T01:26:08;4.65;;;4.25;;
68653;SDS011;55636;51.108;13.622;2022-07-21T01:27:11;6.18;;;4.32;;
68653;SDS011;55636;51.108;13.622;2022-07-21T01:28:13;5.88;;;4.22;;
68653;SDS011;55636;51.108;13.622;2022-07-21T01:29:16;5.05;;;4.30;;
68653;SDS011;55636;51.108;13.622;2022-07-21T01:30:19;4.70;;;4.22;;
68653;SDS011;55636;51.108;13.622;2022-07-21T01:31:21;5.03;;;3.97;;
68653;SDS011;55636;51.108;13.622;2022-07-21T01:32:25;5.70;;;4.28;;
68653;SDS011;55636;51.108;13.622;2022-07-21T01:33:30;6.70;;;4.32;;
68653;SDS011;55636;51.108;13.622;2022-07-21T01:34:39;7.32;;;4.28;;
68653;SDS011;55636;51.108;13.622;2022-07-21T01:35:44;4.90;;;4.50;;
68653;SDS011;55636;51.108;13.622;2022-07-21T01:36:50;5.28;;;4.20;;
68653;SDS011;55636;51.108;13.622;2022-07-21T01:37:52;5.80;;;4.22;;
68653;SDS011;55636;51.108;13.622;2022-07-21T01:38:57;7.93;;;4.40;;
68653;SDS011;55636;51.108;13.622;2022-07-21T01:40:17;7.63;;;3.90;;
68653;SDS011;55636;51.108;13.622;2022-07-21T01:41:38;5.40;;;4.20;;
68653;SDS011;55636;51.108;13.622;2022-07-21T01:42:41;4.43;;;4.00;;
68653;SDS011;55636;51.108;13.622;2022-07-21T01:43:44;6.68;;;4.20;;
68653;SDS011;55636;51.108;13.622;2022-07-21T01:44:47;4.75;;;3.90;;
68653;SDS011;55636;51.108;13.622;2022-07-21T01:45:50;6.43;;;4.00;;
68653;SDS011;55636;51.108;13.622;2022-07-21T01:46:52;4.25;;;3.85;;
68653;SDS011;55636;51.108;13.622;2022-07-21T01:47:56;5.55;;;4.30;;
68653;SDS011;55636;51.108;13.622;2022-07-21T01:48:58;4.60;;;3.92;;
68653;SDS011;55636;51.108;13.622;2022-07-21T01:50:01;7.85;;;4.00;;
68653;SDS011;55636;51.108;13.622;2022-07-21T01:51:04;5.85;;;4.10;;
68653;SDS011;55636;51.108;13.622;2022-07-21T01:52:06;9.30;;;4.07;;
68653;SDS011;55636;51.108;13.622;2022-07-21T01:53:09;7.43;;;4.28;;
68653;SDS011;55636;51.108;13.622;2022-07-21T01:54:12;6.03;;;4.38;;
68653;SDS011;55636;51.108;13.622;2022-07-21T01:55:18;4.75;;;4.25;;
68653;SDS011;55636;51.108;13.622;2022-07-21T01:56:23;6.15;;;4.65;;
68653;SDS011;55636;51.108;13.622;2022-07-21T01:57:26;5.93;;;4.30;;
68653;SDS011;55636;51.108;13.622;2022-07-21T01:58:29;5.30;;;4.30;;
68653;SDS011;55636;51.108;13.622;2022-07-21T01:59:31;5.45;;;4.22;;
68653;SDS011;55636;51.108;13.622;2022-07-21T02:00:34;4.50;;;4.10;;
68653;SDS011;55636;51.108;13.622;2022-07-21T02:01:36;6.50;;;4.63;;
68653;SDS011;55636;51.108;13.622;2022-07-21T02:02:38;5.20;;;4.70;;
68653;SDS011;55636;51.108;13.622;2022-07-21T02:03:41;8.75;;;4.13;;
68653;SDS011;55636;51.108;13.622;2022-07-21T02:04:43;4.82;;;4.10;;
68653;SDS011;55636;51.108;13.622;2022-07-21T02:05:46;7.75;;;4.30;;
68653;SDS011;55636;51.108;13.622;2022-07-21T02:06:50;5.68;;;4.30;;
68653;SDS011;55636;51.108;13.622;2022-07-21T02:07:53;4.35;;;3.95;;
68653;SDS011;55636;51.108;13.622;2022-07-21T02:08:58;5.18;;;4.20;;
68653;SDS011;55636;51.108;13.622;2022-07-21T02:10:00;5.20;;;4.35;;
68653;SDS011;55636;51.108;13.622;2022-07-21T02:11:03;4.70;;;4.28;;
68653;SDS011;55636;51.108;13.622;2022-07-21T02:12:10;5.50;;;4.20;;
68653;SDS011;55636;51.108;13.622;2022-07-21T02:13:12;4.30;;;3.90;;
68653;SDS011;55636;51.108;13.622;2022-07-21T02:14:14;5.47;;;4.10;;
68653;SDS011;55636;51.108;13.622;2022-07-21T02:15:16;4.82;;;4.28;;
68653;SDS011;55636;51.108;13.622;2022-07-21T02:16:19;4.32;;;3.97;;
68653;SDS011;55636;51.108;13.622;2022-07-21T02:17:21;6.07;;;4.00;;
68653;SDS011;55636;51.108;13.622;2022-07-21T02:18:23;6.93;;;3.80;;
68653;SDS011;55636;51.108;13.622;2022-07-21T02:19:28;4.80;;;4.00;;
68653;SDS011;55636;51.108;13.622;2022-07-21T02:20:30;4.97;;;4.32;;
68653;SDS011;55636;51.108;13.622;2022-07-21T02:21:33;5.90;;;4.45;;
68653;SDS011;55636;51.108;13.622;2022-07-21T02:22:35;4.25;;;3.88;;
68653;SDS011;55636;51.108;13.622;2022-07-21T02:23:37;6.43;;;4.32;;
68653;SDS011;55636;51.108;13.622;2022-07-21T02:24:39;5.50;;;4.30;;
68653;SDS011;55636;51.108;13.622;2022-07-21T02:25:43;5.90;;;4.40;;
68653;SDS011;55636;51.108;13.622;2022-07-21T02:26:46;6.15;;;4.30;;
68653;SDS011;55636;51.108;13.622;2022-07-21T02:27:48;4.45;;;3.97;;
68653;SDS011;55636;51.108;13.622;2022-07-21T02:28:50;5.45;;;4.40;;
68653;SDS011;55636;51.108;13.622;2022-07-21T02:29:53;4.85;;;4.35;;
68653;SDS011;55636;51.108;13.622;2022-07-21T02:30:55;4.82;;;4.25;;
68653;SDS011;55636;51.108;13.622;2022-07-21T02:31:57;6.65;;;4.60;;
68653;SDS011;55636;51.108;13.622;2022-07-21T02:33:01;4.45;;;4.05;;
68653;SDS011;55636;51.108;13.622;2022-07-21T02:34:05;6.72;;;4.45;;
68653;SDS011;55636;51.108;13.622;2022-07-21T02:35:08;4.90;;;4.40;;
68653;SDS011;55636;51.108;13.622;2022-07-21T02:36:11;5.25;;;4.30;;
68653;SDS011;55636;51.108;13.622;2022-07-21T02:37:13;5.22;;;4.70;;
68653;SDS011;55636;51.108;13.622;2022-07-21T02:38:15;4.88;;;4.38;;
68653;SDS011;55636;51.108;13.622;2022-07-21T02:39:18;4.65;;;4.15;;
68653;SDS011;55636;51.108;13.622;2022-07-21T02:40:21;4.93;;;4.43;;
68653;SDS011;55636;51.108;13.622;2022-07-21T02:41:23;4.32;;;3.92;;
68653;SDS011;55636;51.108;13.622;2022-07-21T02:42:39;5.68;;;4.18;;
68653;SDS011;55636;51.108;13.622;2022-07-21T02:43:42;7.25;;;4.50;;
68653;SDS011;55636;51.108;13.622;2022-07-21T02:44:44;7.22;;;4.90;;
68653;SDS011;55636;51.108;13.622;2022-07-21T02:45:46;5.13;;;4.63;;
68653;SDS011;55636;51.108;13.622;2022-07-21T02:46:48;5.90;;;4.47;;
68653;SDS011;55636;51.108;13.622;2022-07-21T02:48:54;5.70;;;4.53;;
68653;SDS011;55636;51.108;13.622;2022-07-21T02:50:00;5.03;;;4.53;;
68653;SDS011;55636;51.108;13.622;2022-07-21T02:51:02;5.55;;;4.47;;
68653;SDS011;55636;51.108;13.622;2022-07-21T02:52:09;5.10;;;4.60;;
68653;SDS011;55636;51.108;13.622;2022-07-21T02:53:13;5.32;;;4.80;;
68653;SDS011;55636;51.108;13.622;2022-07-21T02:54:19;6.82;;;4.90;;
68653;SDS011;55636;51.108;13.622;2022-07-21T02:55:24;5.43;;;4.78;;
68653;SDS011;55636;51.108;13.622;2022-07-21T02:56:27;5.05;;;4.55;;
68653;SDS011;55636;51.108;13.622;2022-07-21T02:57:30;7.78;;;5.03;;
68653;SDS011;55636;51.108;13.622;2022-07-21T02:58:32;5.72;;;5.13;;
68653;SDS011;55636;51.108;13.622;2022-07-21T02:59:34;8.70;;;4.75;;
68653;SDS011;55636;51.108;13.622;2022-07-21T03:00:38;6.97;;;4.68;;
68653;SDS011;55636;51.108;13.622;2022-07-21T03:01:45;7.25;;;4.72;;
68653;SDS011;55636;51.108;13.622;2022-07-21T03:02:47;6.32;;;5.18;;
68653;SDS011;55636;51.108;13.622;2022-07-21T03:03:50;5.85;;;5.30;;
68653;SDS011;55636;51.108;13.622;2022-07-21T03:04:55;6.88;;;5.32;;
68653;SDS011;55636;51.108;13.622;2022-07-21T03:05:57;5.78;;;5.15;;
68653;SDS011;55636;51.108;13.622;2022-07-21T03:07:00;8.75;;;5.97;;
68653;SDS011;55636;51.108;13.622;2022-07-21T03:08:04;7.90;;;5.43;;
68653;SDS011;55636;51.108;13.622;2022-07-21T03:09:08;7.13;;;5.70;;
68653;SDS011;55636;51.108;13.622;2022-07-21T03:10:11;7.05;;;5.18;;
68653;SDS011;55636;51.108;13.622;2022-07-21T03:11:13;6.10;;;5.50;;
68653;SDS011;55636;51.108;13.622;2022-07-21T03:12:18;8.77;;;5.95;;
68653;SDS011;55636;51.108;13.622;2022-07-21T03:13:20;6.05;;;5.45;;
68653;SDS011;55636;51.108;13.622;2022-07-21T03:14:23;9.30;;;5.97;;
68653;SDS011;55636;51.108;13.622;2022-07-21T03:15:25;11.13;;;6.20;;
68653;SDS011;55636;51.108;13.622;2022-07-21T03:16:28;7.75;;;5.80;;
68653;SDS011;55636;51.108;13.622;2022-07-21T03:17:30;6.95;;;6.22;;
68653;SDS011;55636;51.108;13.622;2022-07-21T03:18:32;9.27;;;6.10;;
68653;SDS011;55636;51.108;13.622;2022-07-21T03:19:35;8.10;;;6.60;;
68653;SDS011;55636;51.108;13.622;2022-07-21T03:20:38;7.45;;;6.70;;
68653;SDS011;55636;51.108;13.622;2022-07-21T03:21:42;8.40;;;6.90;;
68653;SDS011;55636;51.108;13.622;2022-07-21T03:22:47;8.43;;;6.70;;
68653;SDS011;55636;51.108;13.622;2022-07-21T03:23:49;8.57;;;6.97;;
68653;SDS011;55636;51.108;13.622;2022-07-21T03:24:51;8.43;;;6.22;;
68653;SDS011;55636;51.108;13.622;2022-07-21T03:25:54;9.10;;;6.90;;
68653;SDS011;55636;51.108;13.622;2022-07-21T03:26:56;8.38;;;7.05;;
68653;SDS011;55636;51.108;13.622;2022-07-21T03:28:06;10.15;;;7.25;;
68653;SDS011;55636;51.108;13.622;2022-07-21T03:29:09;8.63;;;6.68;;
68653;SDS011;55636;51.108;13.622;2022-07-21T03:30:12;10.98;;;7.13;;
68653;SDS011;55636;51.108;13.622;2022-07-21T03:31:22;8.10;;;7.13;;
68653;SDS011;55636;51.108;13.622;2022-07-21T03:32:24;9.25;;;7.55;;
68653;SDS011;55636;51.108;13.622;2022-07-21T03:33:26;8.40;;;7.45;;
68653;SDS011;55636;51.108;13.622;2022-07-21T03:34:29;9.40;;;7.70;;
68653;SDS011;55636;51.108;13.622;2022-07-21T03:35:31;11.18;;;7.90;;
68653;SDS011;55636;51.108;13.622;2022-07-21T03:36:34;10.40;;;8.40;;
68653;SDS011;55636;51.108;13.622;2022-07-21T03:39:10;12.77;;;8.45;;
68653;SDS011;55636;51.108;13.622;2022-07-21T03:40:14;9.18;;;8.18;;
68653;SDS011;55636;51.108;13.622;2022-07-21T03:41:17;9.70;;;8.07;;
68653;SDS011;55636;51.108;13.622;2022-07-21T03:42:20;9.02;;;8.15;;
68653;SDS011;55636;51.108;13.622;2022-07-21T03:43:22;10.63;;;8.90;;
68653;SDS011;55636;51.108;13.622;2022-07-21T03:44:24;10.20;;;8.27;;
68653;SDS011;55636;51.108;13.622;2022-07-21T03:45:27;10.90;;;8.30;;
68653;SDS011;55636;51.108;13.622;2022-07-21T03:46:32;10.35;;;8.80;;
68653;SDS011;55636;51.108;13.622;2022-07-21T03:47:37;10.13;;;8.13;;
68653;SDS011;55636;51.108;13.622;2022-07-21T03:48:42;9.73;;;8.52;;
68653;SDS011;55636;51.108;13.622;2022-07-21T03:49:51;10.60;;;8.48;;
68653;SDS011;55636;51.108;13.622;2022-07-21T03:50:53;12.27;;;8.75;;
68653;SDS011;55636;51.108;13.622;2022-07-21T03:51:58;9.20;;;8.23;;
68653;SDS011;55636;51.108;13.622;2022-07-21T03:53:00;11.40;;;8.77;;
68653;SDS011;55636;51.108;13.622;2022-07-21T03:54:03;9.15;;;8.20;;
68653;SDS011;55636;51.108;13.622;2022-07-21T03:55:05;9.23;;;8.23;;
68653;SDS011;55636;51.108;13.622;2022-07-21T03:56:16;10.70;;;7.93;;
68653;SDS011;55636;51.108;13.622;2022-07-21T03:57:18;10.75;;;8.43;;
68653;SDS011;55636;51.108;13.622;2022-07-21T03:58:24;10.38;;;8.27;;
68653;SDS011;55636;51.108;13.622;2022-07-21T03:59:31;9.70;;;8.20;;
68653;SDS011;55636;51.108;13.622;2022-07-21T04:00:39;8.93;;;8.02;;
68653;SDS011;55636;51.108;13.622;2022-07-21T04:01:45;9.68;;;7.65;;
68653;SDS011;55636;51.108;13.622;2022-07-21T04:02:47;11.70;;;8.35;;
68653;SDS011;55636;51.108;13.622;2022-07-21T04:03:50;8.75;;;7.85;;
68653;SDS011;55636;51.108;13.622;2022-07-21T04:04:55;8.68;;;7.78;;
68653;SDS011;55636;51.108;13.622;2022-07-21T04:05:57;11.65;;;7.57;;
68653;SDS011;55636;51.108;13.622;2022-07-21T04:06:59;12.95;;;8.07;;
68653;SDS011;55636;51.108;13.622;2022-07-21T04:08:02;9.43;;;8.35;;
68653;SDS011;55636;51.108;13.622;2022-07-21T04:09:05;10.18;;;8.35;;
68653;SDS011;55636;51.108;13.622;2022-07-21T04:10:08;9.88;;;7.82;;
68653;SDS011;55636;51.108;13.622;2022-07-21T04:11:14;14.55;;;8.18;;
68653;SDS011;55636;51.108;13.622;2022-07-21T04:12:17;8.80;;;7.90;;
68653;SDS011;55636;51.108;13.622;2022-07-21T04:13:20;9.25;;;8.35;;
68653;SDS011;55636;51.108;13.622;2022-07-21T04:14:27;10.10;;;7.85;;
68653;SDS011;55636;51.108;13.622;2022-07-21T04:15:32;9.02;;;7.63;;
68653;SDS011;55636;51.108;13.622;2022-07-21T04:16:35;9.35;;;7.78;;
68653;SDS011;55636;51.108;13.622;2022-07-21T04:17:38;9.73;;;7.60;;
68653;SDS011;55636;51.108;13.622;2022-07-21T04:18:41;11.45;;;8.15;;
68653;SDS011;55636;51.108;13.622;2022-07-21T04:19:43;12.00;;;8.32;;
68653;SDS011;55636;51.108;13.622;2022-07-21T04:20:45;9.15;;;8.00;;
68653;SDS011;55636;51.108;13.622;2022-07-21T04:21:47;11.85;;;7.57;;
68653;SDS011;55636;51.108;13.622;2022-07-21T04:22:50;9.55;;;7.70;;
68653;SDS011;55636;51.108;13.622;2022-07-21T04:23:53;8.60;;;7.57;;
68653;SDS011;55636;51.108;13.622;2022-07-21T04:24:55;7.95;;;7.18;;
68653;SDS011;55636;51.108;13.622;2022-07-21T04:25:57;13.93;;;8.10;;
68653;SDS011;55636;51.108;13.622;2022-07-21T04:27:02;8.63;;;7.72;;
68653;SDS011;55636;51.108;13.622;2022-07-21T04:28:05;9.25;;;7.22;;
68653;SDS011;55636;51.108;13.622;2022-07-21T04:29:07;12.07;;;6.63;;
68653;SDS011;55636;51.108;13.622;2022-07-21T04:30:11;8.10;;;7.30;;
68653;SDS011;55636;51.108;13.622;2022-07-21T04:31:15;11.02;;;8.07;;
68653;SDS011;55636;51.108;13.622;2022-07-21T04:32:17;10.27;;;8.02;;
68653;SDS011;55636;51.108;13.622;2022-07-21T04:33:19;7.65;;;6.88;;
68653;SDS011;55636;51.108;13.622;2022-07-21T04:34:22;8.70;;;7.07;;
68653;SDS011;55636;51.108;13.622;2022-07-21T04:35:24;10.63;;;7.55;;
68653;SDS011;55636;51.108;13.622;2022-07-21T04:36:29;7.70;;;6.85;;
68653;SDS011;55636;51.108;13.622;2022-07-21T04:37:31;8.25;;;7.10;;
68653;SDS011;55636;51.108;13.622;2022-07-21T04:38:33;9.55;;;7.18;;
68653;SDS011;55636;51.108;13.622;2022-07-21T04:39:37;8.05;;;7.03;;
68653;SDS011;55636;51.108;13.622;2022-07-21T04:40:39;8.90;;;7.63;;
68653;SDS011;55636;51.108;13.622;2022-07-21T04:41:42;8.82;;;6.90;;
68653;SDS011;55636;51.108;13.622;2022-07-21T04:42:44;7.72;;;6.70;;
68653;SDS011;55636;51.108;13.622;2022-07-21T04:43:46;7.75;;;6.95;;
68653;SDS011;55636;51.108;13.622;2022-07-21T04:44:48;8.52;;;7.65;;
68653;SDS011;55636;51.108;13.622;2022-07-21T04:45:53;7.68;;;6.65;;
68653;SDS011;55636;51.108;13.622;2022-07-21T04:46:58;8.73;;;7.07;;
68653;SDS011;55636;51.108;13.622;2022-07-21T04:48:00;8.73;;;7.05;;
68653;SDS011;55636;51.108;13.622;2022-07-21T04:49:02;10.85;;;6.95;;
68653;SDS011;55636;51.108;13.622;2022-07-21T04:50:05;8.02;;;6.78;;
68653;SDS011;55636;51.108;13.622;2022-07-21T04:51:07;9.15;;;7.13;;
68653;SDS011;55636;51.108;13.622;2022-07-21T04:52:09;7.85;;;6.97;;
68653;SDS011;55636;51.108;13.622;2022-07-21T04:53:12;7.97;;;7.13;;
68653;SDS011;55636;51.108;13.622;2022-07-21T04:54:14;7.93;;;6.55;;
68653;SDS011;55636;51.108;13.622;2022-07-21T04:55:17;9.98;;;7.15;;
68653;SDS011;55636;51.108;13.622;2022-07-21T04:56:19;7.55;;;6.70;;
68653;SDS011;55636;51.108;13.622;2022-07-21T04:57:22;9.00;;;6.95;;
68653;SDS011;55636;51.108;13.622;2022-07-21T04:58:24;8.60;;;6.47;;
68653;SDS011;55636;51.108;13.622;2022-07-21T04:59:27;9.43;;;6.63;;
68653;SDS011;55636;51.108;13.622;2022-07-21T05:00:29;7.65;;;6.85;;
68653;SDS011;55636;51.108;13.622;2022-07-21T05:01:31;7.30;;;6.47;;
68653;SDS011;55636;51.108;13.622;2022-07-21T05:02:34;9.50;;;7.05;;
68653;SDS011;55636;51.108;13.622;2022-07-21T05:03:38;7.57;;;6.30;;
68653;SDS011;55636;51.108;13.622;2022-07-21T05:04:40;6.47;;;5.97;;
68653;SDS011;55636;51.108;13.622;2022-07-21T05:05:43;7.80;;;6.60;;
68653;SDS011;55636;51.108;13.622;2022-07-21T05:06:45;6.88;;;6.18;;
68653;SDS011;55636;51.108;13.622;2022-07-21T05:07:47;6.57;;;5.97;;
68653;SDS011;55636;51.108;13.622;2022-07-21T05:08:50;7.00;;;6.30;;
68653;SDS011;55636;51.108;13.622;2022-07-21T05:09:54;7.30;;;6.30;;
68653;SDS011;55636;51.108;13.622;2022-07-21T05:10:58;7.15;;;6.30;;
68653;SDS011;55636;51.108;13.622;2022-07-21T05:12:00;6.15;;;5.60;;
68653;SDS011;55636;51.108;13.622;2022-07-21T05:13:03;7.32;;;6.28;;
68653;SDS011;55636;51.108;13.622;2022-07-21T05:14:05;9.50;;;6.60;;
68653;SDS011;55636;51.108;13.622;2022-07-21T05:15:16;7.22;;;5.90;;
68653;SDS011;55636;51.108;13.622;2022-07-21T05:16:20;10.60;;;6.22;;
68653;SDS011;55636;51.108;13.622;2022-07-21T05:17:23;6.60;;;5.95;;
68653;SDS011;55636;51.108;13.622;2022-07-21T05:18:25;7.13;;;5.90;;
68653;SDS011;55636;51.108;13.622;2022-07-21T05:19:27;7.82;;;6.22;;
68653;SDS011;55636;51.108;13.622;2022-07-21T05:20:29;8.32;;;6.03;;
68653;SDS011;55636;51.108;13.622;2022-07-21T05:21:32;6.43;;;5.80;;
68653;SDS011;55636;51.108;13.622;2022-07-21T05:22:34;7.15;;;6.05;;
68653;SDS011;55636;51.108;13.622;2022-07-21T05:23:36;6.25;;;5.65;;
68653;SDS011;55636;51.108;13.622;2022-07-21T05:24:38;7.53;;;5.95;;
68653;SDS011;55636;51.108;13.622;2022-07-21T05:25:41;8.02;;;6.10;;
68653;SDS011;55636;51.108;13.622;2022-07-21T05:26:43;6.63;;;5.93;;
68653;SDS011;55636;51.108;13.622;2022-07-21T05:27:45;7.43;;;6.22;;
68653;SDS011;55636;51.108;13.622;2022-07-21T05:28:47;7.18;;;6.10;;
68653;SDS011;55636;51.108;13.622;2022-07-21T05:29:51;7.22;;;6.53;;
68653;SDS011;55636;51.108;13.622;2022-07-21T05:30:54;7.32;;;5.95;;
68653;SDS011;55636;51.108;13.622;2022-07-21T05:31:56;6.57;;;5.88;;
68653;SDS011;55636;51.108;13.622;2022-07-21T05:32:58;8.45;;;5.93;;
68653;SDS011;55636;51.108;13.622;2022-07-21T05:34:01;6.63;;;6.03;;
68653;SDS011;55636;51.108;13.622;2022-07-21T05:35:03;8.20;;;6.32;;
68653;SDS011;55636;51.108;13.622;2022-07-21T05:36:10;6.18;;;5.57;;
68653;SDS011;55636;51.108;13.622;2022-07-21T05:37:12;8.98;;;6.10;;
68653;SDS011;55636;51.108;13.622;2022-07-21T05:38:15;6.55;;;5.85;;
68653;SDS011;55636;51.108;13.622;2022-07-21T05:39:17;7.00;;;6.30;;
68653;SDS011;55636;51.108;13.622;2022-07-21T05:40:19;8.25;;;6.38;;
68653;SDS011;55636;51.108;13.622;2022-07-21T05:41:21;6.50;;;5.90;;
68653;SDS011;55636;51.108;13.622;2022-07-21T05:42:25;7.72;;;6.25;;
68653;SDS011;55636;51.108;13.622;2022-07-21T05:43:27;6.45;;;5.90;;
68653;SDS011;55636;51.108;13.622;2022-07-21T05:44:30;6.43;;;5.78;;
68653;SDS011;55636;51.108;13.622;2022-07-21T05:45:32;7.75;;;5.90;;
68653;SDS011;55636;51.108;13.622;2022-07-21T05:46:34;7.93;;;6.45;;
68653;SDS011;55636;51.108;13.622;2022-07-21T05:47:37;8.82;;;6.18;;
68653;SDS011;55636;51.108;13.622;2022-07-21T05:48:40;6.63;;;5.88;;
68653;SDS011;55636;51.108;13.622;2022-07-21T05:49:42;6.82;;;5.80;;
68653;SDS011;55636;51.108;13.622;2022-07-21T05:50:44;6.70;;;6.03;;
68653;SDS011;55636;51.108;13.622;2022-07-21T05:51:47;6.72;;;5.75;;
68653;SDS011;55636;51.108;13.622;2022-07-21T05:52:49;5.90;;;5.40;;
68653;SDS011;55636;51.108;13.622;2022-07-21T05:53:51;7.45;;;6.10;;
68653;SDS011;55636;51.108;13.622;2022-07-21T05:54:53;7.70;;;5.97;;
68653;SDS011;55636;51.108;13.622;2022-07-21T05:55:56;6.60;;;6.00;;
68653;SDS011;55636;51.108;13.622;2022-07-21T05:56:58;7.70;;;6.20;;
68653;SDS011;55636;51.108;13.622;2022-07-21T05:58:00;6.72;;;5.85;;
68653;SDS011;55636;51.108;13.622;2022-07-21T05:59:09;6.13;;;5.53;;
68653;SDS011;55636;51.108;13.622;2022-07-21T06:00:12;7.00;;;5.80;;
68653;SDS011;55636;51.108;13.622;2022-07-21T06:01:14;6.25;;;5.65;;
68653;SDS011;55636;51.108;13.622;2022-07-21T06:02:18;6.38;;;5.78;;
68653;SDS011;55636;51.108;13.622;2022-07-21T06:03:21;6.80;;;6.10;;
68653;SDS011;55636;51.108;13.622;2022-07-21T06:04:23;7.05;;;6.35;;
68653;SDS011;55636;51.108;13.622;2022-07-21T06:05:26;7.38;;;6.50;;
68653;SDS011;55636;51.108;13.622;2022-07-21T06:06:28;7.38;;;5.95;;
68653;SDS011;55636;51.108;13.622;2022-07-21T06:07:30;7.30;;;6.20;;
68653;SDS011;55636;51.108;13.622;2022-07-21T06:08:32;6.75;;;6.13;;
68653;SDS011;55636;51.108;13.622;2022-07-21T06:09:35;6.35;;;5.75;;
68653;SDS011;55636;51.108;13.622;2022-07-21T06:10:37;8.10;;;6.55;;
68653;SDS011;55636;51.108;13.622;2022-07-21T06:11:40;7.38;;;6.68;;
68653;SDS011;55636;51.108;13.622;2022-07-21T06:12:42;7.78;;;6.95;;
68653;SDS011;55636;51.108;13.622;2022-07-21T06:13:46;8.13;;;7.40;;
68653;SDS011;55636;51.108;13.622;2022-07-21T06:14:49;11.85;;;7.43;;
68653;SDS011;55636;51.108;13.622;2022-07-21T06:15:51;10.00;;;7.63;;
68653;SDS011;55636;51.108;13.622;2022-07-21T06:16:53;9.30;;;7.38;;
68653;SDS011;55636;51.108;13.622;2022-07-21T06:17:56;8.13;;;7.40;;